createdAt,value
2017-07-05T00:00:34.739Z,0
2017-07-05T00:01:34.351Z,0
2017-07-05T00:02:34.446Z,0
2017-07-05T00:03:34.462Z,0
2017-07-05T00:04:34.466Z,0
2017-07-05T00:05:34.759Z,0
2017-07-05T00:06:34.563Z,0
2017-07-05T00:07:34.562Z,0
2017-07-05T00:08:34.600Z,0
2017-07-05T00:09:34.662Z,0
2017-07-05T00:10:34.899Z,0
2017-07-05T00:11:34.751Z,0
2017-07-05T00:12:34.791Z,0
2017-07-05T00:13:34.784Z,0
2017-07-05T00:14:35.033Z,0
2017-07-05T00:15:34.890Z,0
2017-07-05T00:16:34.888Z,0
2017-07-05T00:17:34.853Z,0
2017-07-05T00:18:34.986Z,0
2017-07-05T00:19:35.000Z,0
2017-07-05T00:20:34.988Z,0
2017-07-05T00:21:35.040Z,0
2017-07-05T00:22:35.088Z,0
2017-07-05T00:23:35.100Z,0
2017-07-05T00:24:35.134Z,0
2017-07-05T00:25:35.385Z,0
2017-07-05T00:26:35.250Z,0
2017-07-05T00:27:35.223Z,0
2017-07-05T00:28:35.291Z,0
2017-07-05T00:29:35.304Z,0
2017-07-05T00:30:35.354Z,0
2017-07-05T00:31:35.382Z,0
2017-07-05T00:32:35.397Z,0
2017-07-05T00:33:35.493Z,0
2017-07-05T00:34:35.494Z,0
2017-07-05T00:35:35.532Z,0
2017-07-05T00:36:35.948Z,0
2017-07-05T00:37:35.595Z,0
2017-07-05T00:38:35.594Z,0
2017-07-05T00:39:35.663Z,0
2017-07-05T00:40:35.655Z,0
2017-07-05T00:41:35.670Z,0
2017-07-05T00:42:35.759Z,0
2017-07-05T00:43:35.796Z,0
2017-07-05T00:44:35.824Z,0
2017-07-05T00:45:35.845Z,0
2017-07-05T00:46:35.873Z,0
2017-07-05T00:47:35.895Z,0
2017-07-05T00:48:35.963Z,0
2017-07-05T00:49:35.993Z,0
2017-07-05T00:50:35.999Z,0
2017-07-05T00:51:36.016Z,0
2017-07-05T00:52:36.041Z,0
2017-07-05T00:53:36.074Z,0
2017-07-05T00:54:36.123Z,0
2017-07-05T00:55:36.163Z,0
2017-07-05T00:56:36.215Z,0
2017-07-05T00:57:36.245Z,0
2017-07-05T00:58:36.329Z,0
2017-07-05T00:59:36.338Z,0
2017-07-05T01:00:36.384Z,0
2017-07-05T01:01:36.401Z,0
2017-07-05T01:02:36.431Z,0
2017-07-05T01:03:36.468Z,0
2017-07-05T01:04:36.505Z,0
2017-07-05T01:05:36.509Z,0
2017-07-05T01:06:36.513Z,0
2017-07-05T01:07:36.613Z,0
2017-07-05T01:08:36.607Z,0
2017-07-05T01:09:36.645Z,0
2017-07-05T01:10:36.695Z,0
2017-07-05T01:11:36.736Z,0
2017-07-05T01:12:36.742Z,0
2017-07-05T01:13:36.771Z,0
2017-07-05T01:14:36.806Z,0
2017-07-05T01:15:36.865Z,0
2017-07-05T01:16:36.911Z,0
2017-07-05T01:17:36.898Z,0
2017-07-05T01:18:36.928Z,0
2017-07-05T01:19:37.028Z,0
2017-07-05T01:20:37.034Z,0
2017-07-05T01:21:37.054Z,0
2017-07-05T01:22:37.060Z,0
2017-07-05T01:23:37.155Z,0
2017-07-05T01:24:37.153Z,0
2017-07-05T01:25:37.172Z,0
2017-07-05T01:26:37.226Z,0
2017-07-05T01:27:37.247Z,0
2017-07-05T01:28:37.294Z,0
2017-07-05T01:29:37.314Z,0
2017-07-05T01:30:37.308Z,0
2017-07-05T01:31:37.398Z,0
2017-07-05T01:32:37.445Z,0
2017-07-05T01:33:37.453Z,0
2017-07-05T01:34:37.460Z,0
2017-07-05T01:35:37.443Z,0
2017-07-05T01:36:37.496Z,0
2017-07-05T01:37:37.613Z,0
2017-07-05T01:38:37.657Z,0
2017-07-05T01:39:37.647Z,0
2017-07-05T01:40:37.665Z,0
2017-07-05T01:41:37.672Z,0
2017-07-05T01:42:37.763Z,0
2017-07-05T01:43:37.799Z,0
2017-07-05T01:44:37.866Z,0
2017-07-05T01:45:37.863Z,0
2017-07-05T01:46:37.917Z,0
2017-07-05T01:47:37.946Z,0
2017-07-05T01:48:37.947Z,0
2017-07-05T01:49:37.945Z,0
2017-07-05T01:50:38.056Z,0
2017-07-05T01:51:38.035Z,0
2017-07-05T01:52:38.116Z,0
2017-07-05T01:53:38.087Z,0
2017-07-05T01:54:38.154Z,0
2017-07-05T01:55:38.165Z,0
2017-07-05T01:56:38.210Z,0
2017-07-05T01:57:38.218Z,0
2017-07-05T01:58:38.322Z,0
2017-07-05T01:59:38.328Z,0
2017-07-05T02:00:38.331Z,0
2017-07-05T02:01:38.375Z,0
2017-07-05T02:02:38.425Z,0
2017-07-05T02:03:38.453Z,0
2017-07-05T02:04:38.469Z,0
2017-07-05T02:05:38.555Z,0
2017-07-05T02:06:38.564Z,0
2017-07-05T02:07:38.583Z,0
2017-07-05T02:08:38.621Z,0
2017-07-05T02:09:38.600Z,0
2017-07-05T02:10:38.662Z,0
2017-07-05T02:11:38.756Z,0
2017-07-05T02:12:38.717Z,0
2017-07-05T02:13:38.772Z,0
2017-07-05T02:14:38.842Z,0
2017-07-05T02:15:38.845Z,0
2017-07-05T02:16:38.920Z,0
2017-07-05T02:17:38.932Z,0
2017-07-05T02:18:38.957Z,4
2017-07-05T02:19:38.965Z,4
2017-07-05T02:20:38.970Z,4
2017-07-05T02:21:39.074Z,4
2017-07-05T02:22:39.096Z,4
2017-07-05T02:23:39.105Z,4
2017-07-05T02:24:39.164Z,4
2017-07-05T02:25:39.185Z,4
2017-07-05T02:26:39.230Z,0
2017-07-05T02:27:39.274Z,4
2017-07-05T02:28:39.317Z,8
2017-07-05T02:29:39.346Z,8
2017-07-05T02:30:39.345Z,12
2017-07-05T02:31:39.365Z,12
2017-07-05T02:32:39.410Z,12
2017-07-05T02:33:39.464Z,16
2017-07-05T02:34:39.439Z,16
2017-07-05T02:35:39.494Z,16
2017-07-05T02:36:39.548Z,20
2017-07-05T02:37:39.587Z,24
2017-07-05T02:38:39.628Z,24
2017-07-05T02:39:39.642Z,24
2017-07-05T02:40:39.682Z,28
2017-07-05T02:41:39.704Z,32
2017-07-05T02:42:39.790Z,36
2017-07-05T02:43:39.773Z,40
2017-07-05T02:44:39.820Z,44
2017-07-05T02:45:39.872Z,40
2017-07-05T02:46:39.841Z,44
2017-07-05T02:47:39.866Z,44
2017-07-05T02:48:39.942Z,44
2017-07-05T02:49:40.052Z,44
2017-07-05T02:50:39.987Z,52
2017-07-05T02:51:40.084Z,56
2017-07-05T02:52:40.019Z,60
2017-07-05T02:53:40.149Z,64
2017-07-05T02:54:40.127Z,68
2017-07-05T02:55:40.151Z,72
2017-07-05T02:56:40.229Z,76
2017-07-05T02:57:40.245Z,84
2017-07-05T02:58:40.296Z,84
2017-07-05T02:59:40.302Z,88
2017-07-05T03:00:40.337Z,100
2017-07-05T03:01:40.404Z,104
2017-07-05T03:02:40.454Z,112
2017-07-05T03:03:40.486Z,116
2017-07-05T03:04:40.493Z,120
2017-07-05T03:05:40.523Z,120
2017-07-05T03:06:40.528Z,124
2017-07-05T03:07:40.594Z,132
2017-07-05T03:08:40.602Z,132
2017-07-05T03:09:40.661Z,128
2017-07-05T03:10:40.730Z,128
2017-07-05T03:11:40.729Z,132
2017-07-05T03:12:40.762Z,144
2017-07-05T03:13:40.799Z,156
2017-07-05T03:14:40.846Z,172
2017-07-05T03:15:40.803Z,192
2017-07-05T03:16:40.884Z,216
2017-07-05T03:17:40.876Z,232
2017-07-05T03:18:40.899Z,248
2017-07-05T03:19:40.943Z,272
2017-07-05T03:20:41.015Z,296
2017-07-05T03:21:41.050Z,316
2017-07-05T03:22:41.062Z,320
2017-07-05T03:23:41.052Z,328
2017-07-05T03:24:41.130Z,332
2017-07-05T03:25:41.167Z,352
2017-07-05T03:26:41.196Z,364
2017-07-05T03:27:41.229Z,380
2017-07-05T03:28:41.288Z,404
2017-07-05T03:29:41.285Z,428
2017-07-05T03:30:41.303Z,436
2017-07-05T03:31:41.391Z,464
2017-07-05T03:32:41.395Z,480
2017-07-05T03:33:41.430Z,472
2017-07-05T03:34:41.456Z,472
2017-07-05T03:35:41.479Z,468
2017-07-05T03:36:41.537Z,464
2017-07-05T03:37:41.594Z,444
2017-07-05T03:38:41.604Z,416
2017-07-05T03:39:41.643Z,404
2017-07-05T03:40:41.678Z,404
2017-07-05T03:41:41.694Z,392
2017-07-05T03:42:41.710Z,392
2017-07-05T03:43:41.808Z,380
2017-07-05T03:44:41.796Z,380
2017-07-05T03:45:41.805Z,392
2017-07-05T03:46:41.866Z,408
2017-07-05T03:47:41.942Z,412
2017-07-05T03:48:41.983Z,444
2017-07-05T03:49:41.970Z,468
2017-07-05T03:50:42.049Z,492
2017-07-05T03:51:42.055Z,508
2017-07-05T03:52:42.093Z,492
2017-07-05T03:53:42.066Z,488
2017-07-05T03:54:42.103Z,516
2017-07-05T03:55:42.189Z,580
2017-07-05T03:56:42.195Z,692
2017-07-05T03:57:42.266Z,808
2017-07-05T03:58:42.288Z,904
2017-07-05T03:59:42.287Z,988
2017-07-05T04:00:42.302Z,1020
2017-07-05T04:01:42.389Z,984
2017-07-05T04:02:42.374Z,1080
2017-07-05T04:03:42.403Z,1176
2017-07-05T04:04:42.444Z,1224
2017-07-05T04:05:42.463Z,1112
2017-07-05T04:06:42.500Z,944
2017-07-05T04:07:42.535Z,876
2017-07-05T04:08:42.563Z,900
2017-07-05T04:09:42.599Z,928
2017-07-05T04:10:42.663Z,992
2017-07-05T04:11:42.684Z,1044
2017-07-05T04:12:42.682Z,1144
2017-07-05T04:13:42.793Z,1224
2017-07-05T04:14:42.759Z,1252
2017-07-05T04:15:42.803Z,1236
2017-07-05T04:16:42.838Z,1128
2017-07-05T04:17:42.868Z,936
2017-07-05T04:18:42.900Z,764
2017-07-05T04:19:42.944Z,676
2017-07-05T04:20:42.969Z,696
2017-07-05T04:21:43.055Z,764
2017-07-05T04:22:43.238Z,848
2017-07-05T04:23:43.062Z,980
2017-07-05T04:24:43.116Z,1168
2017-07-05T04:25:43.217Z,1188
2017-07-05T04:26:43.293Z,1160
2017-07-05T04:27:43.390Z,1152
2017-07-05T04:28:43.307Z,1152
2017-07-05T04:29:43.348Z,1132
2017-07-05T04:30:43.299Z,1164
2017-07-05T04:31:43.317Z,1240
2017-07-05T04:32:43.436Z,1356
2017-07-05T04:33:43.398Z,1396
2017-07-05T04:34:43.425Z,1312
2017-07-05T04:35:43.489Z,1164
2017-07-05T04:36:43.563Z,976
2017-07-05T04:37:43.547Z,896
2017-07-05T04:38:43.566Z,908
2017-07-05T04:39:43.830Z,992
2017-07-05T04:40:43.647Z,1080
2017-07-05T04:41:43.662Z,1064
2017-07-05T04:42:43.695Z,1028
2017-07-05T04:43:43.814Z,1080
2017-07-05T04:44:43.770Z,1168
2017-07-05T04:45:43.870Z,1156
2017-07-05T04:46:43.852Z,992
2017-07-05T04:47:43.850Z,852
2017-07-05T04:48:43.928Z,784
2017-07-05T04:49:43.956Z,792
2017-07-05T04:50:43.985Z,748
2017-07-05T04:51:43.994Z,724
2017-07-05T04:52:44.140Z,736
2017-07-05T04:53:44.153Z,744
2017-07-05T04:54:44.327Z,744
2017-07-05T04:55:44.148Z,744
2017-07-05T04:56:44.306Z,764
2017-07-05T04:57:44.224Z,800
2017-07-05T04:58:44.245Z,848
2017-07-05T04:59:44.298Z,904
2017-07-05T05:00:44.376Z,928
2017-07-05T05:01:44.393Z,948
2017-07-05T05:02:44.386Z,932
2017-07-05T05:03:44.518Z,860
2017-07-05T05:04:44.568Z,828
2017-07-05T05:05:44.474Z,908
2017-07-05T05:06:44.523Z,1028
2017-07-05T05:07:44.555Z,1024
2017-07-05T05:08:44.596Z,980
2017-07-05T05:09:44.626Z,948
2017-07-05T05:10:44.714Z,952
2017-07-05T05:11:44.671Z,960
2017-07-05T05:12:44.767Z,964
2017-07-05T05:13:44.741Z,876
2017-07-05T05:14:44.762Z,884
2017-07-05T05:15:44.845Z,976
2017-07-05T05:16:44.846Z,1064
2017-07-05T05:17:44.908Z,1076
2017-07-05T05:18:44.932Z,1136
2017-07-05T05:19:44.950Z,1140
2017-07-05T05:20:45.055Z,1144
2017-07-05T05:21:44.994Z,1176
2017-07-05T05:22:45.027Z,1208
2017-07-05T05:23:45.085Z,1232
2017-07-05T05:24:45.128Z,1288
2017-07-05T05:25:45.195Z,1292
2017-07-05T05:26:45.240Z,1224
2017-07-05T05:27:45.228Z,1108
2017-07-05T05:28:45.387Z,1000
2017-07-05T05:29:45.342Z,972
2017-07-05T05:30:45.322Z,1000
2017-07-05T05:31:45.363Z,1036
2017-07-05T05:32:45.495Z,1060
2017-07-05T05:33:45.436Z,1036
2017-07-05T05:34:45.510Z,1016
2017-07-05T05:35:45.484Z,1036
2017-07-05T05:36:45.544Z,1104
2017-07-05T05:37:45.566Z,1232
2017-07-05T05:38:45.698Z,1308
2017-07-05T05:39:45.696Z,1260
2017-07-05T05:40:45.655Z,1136
2017-07-05T05:41:45.696Z,1016
2017-07-05T05:42:45.734Z,960
2017-07-05T05:43:45.861Z,1012
2017-07-05T05:44:45.815Z,1104
2017-07-05T05:45:45.895Z,1136
2017-07-05T05:46:45.880Z,1156
2017-07-05T05:47:45.894Z,1168
2017-07-05T05:48:45.940Z,1152
2017-07-05T05:49:45.973Z,1080
2017-07-05T05:50:45.981Z,1092
2017-07-05T05:51:46.044Z,1108
2017-07-05T05:52:46.073Z,1076
2017-07-05T05:53:46.297Z,1020
2017-07-05T05:54:46.132Z,972
2017-07-05T05:55:46.163Z,952
2017-07-05T05:56:46.234Z,972
2017-07-05T05:57:46.234Z,992
2017-07-05T05:58:46.287Z,956
2017-07-05T05:59:46.393Z,916
2017-07-05T06:00:46.338Z,888
2017-07-05T06:01:46.427Z,864
2017-07-05T06:02:46.686Z,868
2017-07-05T06:03:46.517Z,948
2017-07-05T06:04:46.626Z,1056
2017-07-05T06:05:46.543Z,1068
2017-07-05T06:06:46.592Z,1088
2017-07-05T06:07:46.630Z,1108
2017-07-05T06:08:46.721Z,1044
2017-07-05T06:09:46.634Z,948
2017-07-05T06:10:46.806Z,920
2017-07-05T06:11:46.857Z,960
2017-07-05T06:12:46.750Z,1016
2017-07-05T06:13:46.896Z,1076
2017-07-05T06:14:46.830Z,1164
2017-07-05T06:15:46.887Z,1320
2017-07-05T06:16:46.956Z,1412
2017-07-05T06:17:46.919Z,1320
2017-07-05T06:18:47.023Z,1240
2017-07-05T06:19:46.991Z,1264
2017-07-05T06:20:47.065Z,1232
2017-07-05T06:21:47.056Z,1024
2017-07-05T06:22:47.089Z,856
2017-07-05T06:23:47.190Z,808
2017-07-05T06:24:47.487Z,896
2017-07-05T06:25:47.490Z,1016
2017-07-05T06:26:47.248Z,1060
2017-07-05T06:27:47.291Z,1084
2017-07-05T06:28:47.350Z,1148
2017-07-05T06:29:47.344Z,1264
2017-07-05T06:30:47.363Z,1236
2017-07-05T06:31:47.394Z,1228
2017-07-05T06:32:47.430Z,1528
2017-07-05T06:33:47.584Z,2048
2017-07-05T06:34:47.589Z,2436
2017-07-05T06:35:47.636Z,2568
2017-07-05T06:36:47.569Z,2780
2017-07-05T06:37:47.592Z,3020
2017-07-05T06:38:47.693Z,3176
2017-07-05T06:39:47.760Z,2900
2017-07-05T06:40:47.812Z,2400
2017-07-05T06:41:47.794Z,1992
2017-07-05T06:42:47.758Z,1980
2017-07-05T06:43:48.085Z,2188
2017-07-05T06:44:47.827Z,2152
2017-07-05T06:45:47.944Z,1952
2017-07-05T06:46:48.184Z,1792
2017-07-05T06:47:47.966Z,1692
2017-07-05T06:48:47.951Z,1784
2017-07-05T06:49:48.011Z,1980
2017-07-05T06:50:48.256Z,2200
2017-07-05T06:51:48.061Z,2468
2017-07-05T06:52:48.127Z,2492
2017-07-05T06:53:48.169Z,2280
2017-07-05T06:54:48.195Z,2072
2017-07-05T06:55:48.199Z,1952
2017-07-05T06:56:48.242Z,1888
2017-07-05T06:57:48.702Z,1880
2017-07-05T06:58:48.408Z,1924
2017-07-05T06:59:48.454Z,2264
2017-07-05T07:00:48.435Z,2916
2017-07-05T07:01:48.549Z,2804
2017-07-05T07:02:48.411Z,2476
2017-07-05T07:03:48.471Z,2524
2017-07-05T07:04:48.517Z,2244
2017-07-05T07:05:48.912Z,2072
2017-07-05T07:06:48.699Z,2288
2017-07-05T07:07:48.604Z,2296
2017-07-05T07:08:48.657Z,2224
2017-07-05T07:09:48.758Z,2168
2017-07-05T07:10:48.861Z,2328
2017-07-05T07:11:48.754Z,2372
2017-07-05T07:12:48.790Z,2268
2017-07-05T07:13:48.915Z,2616
2017-07-05T07:14:48.941Z,2636
2017-07-05T07:15:49.040Z,2868
2017-07-05T07:16:48.889Z,2740
2017-07-05T07:17:48.959Z,2472
2017-07-05T07:18:49.055Z,2768
2017-07-05T07:19:49.019Z,2816
2017-07-05T07:20:49.253Z,2540
2017-07-05T07:21:49.136Z,2696
2017-07-05T07:22:49.111Z,2980
2017-07-05T07:23:49.195Z,3188
2017-07-05T07:24:49.288Z,3280
2017-07-05T07:25:49.344Z,2884
2017-07-05T07:26:49.261Z,2640
2017-07-05T07:27:49.370Z,2368
2017-07-05T07:28:49.728Z,2516
2017-07-05T07:29:49.361Z,2268
2017-07-05T07:30:49.647Z,2272
2017-07-05T07:31:49.413Z,2172
2017-07-05T07:32:49.493Z,2272
2017-07-05T07:33:49.545Z,2212
2017-07-05T07:34:49.526Z,2168
2017-07-05T07:35:49.582Z,2268
2017-07-05T07:36:49.629Z,2332
2017-07-05T07:37:49.653Z,2116
2017-07-05T07:38:49.653Z,2204
2017-07-05T07:39:49.942Z,2336
2017-07-05T07:40:49.776Z,2556
2017-07-05T07:41:49.805Z,2464
2017-07-05T07:42:50.262Z,2544
2017-07-05T07:43:49.866Z,2408
2017-07-05T07:44:49.930Z,2344
2017-07-05T07:45:49.953Z,2400
2017-07-05T07:46:50.100Z,2488
2017-07-05T07:47:49.982Z,2752
2017-07-05T07:48:50.030Z,3164
2017-07-05T07:49:50.171Z,3308
2017-07-05T07:50:50.316Z,3300
2017-07-05T07:51:50.158Z,3732
2017-07-05T07:52:50.210Z,3780
2017-07-05T07:53:50.216Z,3552
2017-07-05T07:54:50.221Z,3456
2017-07-05T07:55:50.276Z,3708
2017-07-05T07:56:50.293Z,3928
2017-07-05T07:57:50.346Z,4008
2017-07-05T07:58:50.371Z,4028
2017-07-05T07:59:50.415Z,3920
2017-07-05T08:00:50.452Z,3860
2017-07-05T08:01:50.603Z,3576
2017-07-05T08:02:50.478Z,3536
2017-07-05T08:03:50.539Z,3484
2017-07-05T08:04:50.773Z,3560
2017-07-05T08:05:50.654Z,4252
2017-07-05T08:06:50.744Z,4584
2017-07-05T08:07:50.759Z,4928
2017-07-05T08:08:50.693Z,4904
2017-07-05T08:09:50.720Z,4820
2017-07-05T08:10:51.161Z,5000
2017-07-05T08:11:51.480Z,5056
2017-07-05T08:12:50.833Z,4960
2017-07-05T08:13:51.319Z,4932
2017-07-05T08:14:50.900Z,4864
2017-07-05T08:15:50.992Z,4764
2017-07-05T08:16:51.133Z,4796
2017-07-05T08:17:51.011Z,4928
2017-07-05T08:18:51.141Z,5024
2017-07-05T08:19:51.106Z,5344
2017-07-05T08:20:51.186Z,5664
2017-07-05T08:21:51.112Z,5728
2017-07-05T08:22:51.171Z,5564
2017-07-05T08:23:51.499Z,5676
2017-07-05T08:24:51.248Z,5976
2017-07-05T08:25:51.398Z,6140
2017-07-05T08:26:51.299Z,6224
2017-07-05T08:27:51.369Z,6008
2017-07-05T08:28:51.550Z,6020
2017-07-05T08:29:51.700Z,6280
2017-07-05T08:30:51.477Z,6352
2017-07-05T08:31:51.689Z,6060
2017-07-05T08:32:51.762Z,5644
2017-07-05T08:33:51.800Z,5332
2017-07-05T08:34:51.564Z,5260
2017-07-05T08:35:51.688Z,5736
2017-07-05T08:36:51.744Z,6164
2017-07-05T08:37:51.720Z,6204
2017-07-05T08:38:51.775Z,5968
2017-07-05T08:39:51.747Z,6032
2017-07-05T08:40:51.768Z,5920
2017-07-05T08:41:51.824Z,5716
2017-07-05T08:42:52.217Z,5608
2017-07-05T08:43:51.864Z,5696
2017-07-05T08:44:52.045Z,5848
2017-07-05T08:45:51.984Z,6036
2017-07-05T08:46:52.022Z,6552
2017-07-05T08:47:52.061Z,7548
2017-07-05T08:48:52.033Z,7860
2017-07-05T08:49:52.095Z,8292
2017-07-05T08:50:52.130Z,9720
2017-07-05T08:51:52.146Z,11096
2017-07-05T08:52:52.433Z,13144
2017-07-05T08:53:52.228Z,15840
2017-07-05T08:54:52.320Z,18624
2017-07-05T08:55:52.376Z,21024
2017-07-05T08:56:52.336Z,26528
2017-07-05T08:57:52.523Z,58784
2017-07-05T08:58:52.423Z,32448
2017-07-05T08:59:52.828Z,40096
2017-07-05T09:00:52.483Z,22976
2017-07-05T09:01:53.038Z,18048
2017-07-05T09:02:53.072Z,17888
2017-07-05T09:03:52.619Z,28160
2017-07-05T09:04:52.676Z,26560
2017-07-05T09:05:52.984Z,17536
2017-07-05T09:06:53.152Z,17792
2017-07-05T09:07:52.900Z,17760
2017-07-05T09:08:52.775Z,13644
2017-07-05T09:09:52.809Z,11808
2017-07-05T09:10:52.846Z,13752
2017-07-05T09:11:52.912Z,14524
2017-07-05T09:12:52.920Z,16064
2017-07-05T09:13:53.165Z,13996
2017-07-05T09:14:53.124Z,12768
2017-07-05T09:15:53.072Z,14232
2017-07-05T09:16:53.426Z,14036
2017-07-05T09:17:53.165Z,15648
2017-07-05T09:18:53.210Z,16000
2017-07-05T09:19:53.490Z,15304
2017-07-05T09:20:53.311Z,12972
2017-07-05T09:21:53.369Z,11296
2017-07-05T09:22:53.343Z,10996
2017-07-05T09:23:53.352Z,11512
2017-07-05T09:24:53.638Z,11260
2017-07-05T09:25:53.702Z,11092
2017-07-05T09:26:53.672Z,12080
2017-07-05T09:27:53.541Z,14184
2017-07-05T09:28:53.600Z,17344
2017-07-05T09:29:53.896Z,22400
2017-07-05T09:30:53.902Z,16704
2017-07-05T09:31:53.683Z,16032
2017-07-05T09:32:53.951Z,16416
2017-07-05T09:33:53.960Z,18336
2017-07-05T09:34:53.770Z,20480
2017-07-05T09:35:54.150Z,20128
2017-07-05T09:36:53.990Z,26624
2017-07-05T09:37:53.901Z,18080
2017-07-05T09:38:53.983Z,18624
2017-07-05T09:39:54.000Z,20256
2017-07-05T09:40:55.713Z,24032
2017-07-05T09:41:54.656Z,21152
2017-07-05T09:42:54.258Z,24992
2017-07-05T09:43:54.959Z,19232
2017-07-05T09:44:54.473Z,17504
2017-07-05T09:45:54.414Z,15144
2017-07-05T09:46:54.636Z,15488
2017-07-05T09:47:54.707Z,15648
2017-07-05T09:48:54.488Z,15968
2017-07-05T09:49:55.510Z,15552
2017-07-05T09:50:55.064Z,16672
2017-07-05T09:51:54.735Z,17088
2017-07-05T09:52:54.621Z,16160
2017-07-05T09:53:54.886Z,17440
2017-07-05T09:54:55.011Z,15244
2017-07-05T09:55:55.935Z,14376
2017-07-05T09:56:54.986Z,14440
2017-07-05T09:57:55.060Z,13048
2017-07-05T09:58:55.506Z,11508
2017-07-05T09:59:55.434Z,13068
2017-07-05T10:00:55.006Z,15012
2017-07-05T10:01:55.259Z,18880
2017-07-05T10:02:55.175Z,18912
2017-07-05T10:03:55.616Z,27488
2017-07-05T10:04:55.089Z,19040
2017-07-05T10:05:55.209Z,16480
2017-07-05T10:06:55.113Z,21888
2017-07-05T10:07:55.378Z,19392
2017-07-05T10:08:56.088Z,13452
2017-07-05T10:09:55.281Z,11660
2017-07-05T10:10:56.024Z,11196
2017-07-05T10:11:55.474Z,21920
2017-07-05T10:12:55.803Z,22912
2017-07-05T10:13:55.535Z,22624
2017-07-05T10:14:55.695Z,20992
2017-07-05T10:15:55.854Z,16288
2017-07-05T10:16:55.628Z,11500
2017-07-05T10:17:56.334Z,14232
2017-07-05T10:18:55.865Z,24224
2017-07-05T10:19:55.971Z,14876
2017-07-05T10:20:55.718Z,15252
2017-07-05T10:21:55.852Z,23488
2017-07-05T10:22:56.274Z,24128
2017-07-05T10:23:56.449Z,23648
2017-07-05T10:24:56.832Z,12912
2017-07-05T10:25:56.417Z,11244
2017-07-05T10:26:56.050Z,9224
2017-07-05T10:27:56.145Z,13052
2017-07-05T10:28:56.054Z,18816
2017-07-05T10:29:56.153Z,19904
2017-07-05T10:30:56.736Z,19744
2017-07-05T10:31:56.171Z,20288
2017-07-05T10:32:57.163Z,15936
2017-07-05T10:33:56.804Z,14912
2017-07-05T10:34:56.270Z,18464
2017-07-05T10:35:56.733Z,19040
2017-07-05T10:36:56.599Z,15204
2017-07-05T10:37:56.496Z,16288
2017-07-05T10:38:56.654Z,23648
2017-07-05T10:39:56.499Z,21728
2017-07-05T10:40:58.036Z,19968
2017-07-05T10:41:57.019Z,18304
2017-07-05T10:42:57.490Z,14296
2017-07-05T10:43:56.957Z,12372
2017-07-05T10:44:57.371Z,14732
2017-07-05T10:45:56.823Z,15840
2017-07-05T10:46:56.794Z,16672
2017-07-05T10:47:56.917Z,12912
2017-07-05T10:48:57.045Z,17504
2017-07-05T10:49:57.781Z,14708
2017-07-05T10:50:57.571Z,13964
2017-07-05T10:51:56.977Z,11964
2017-07-05T10:52:57.432Z,19360
2017-07-05T10:53:57.381Z,12952
2017-07-05T10:54:57.278Z,15360
2017-07-05T10:55:57.179Z,16192
2017-07-05T10:56:57.395Z,13860
2017-07-05T10:57:57.766Z,14000
2017-07-05T10:58:57.688Z,16544
2017-07-05T10:59:57.593Z,15808
2017-07-05T11:00:57.836Z,14156
2017-07-05T11:01:57.529Z,13004
2017-07-05T11:02:57.755Z,12260
2017-07-05T11:03:57.549Z,13108
2017-07-05T11:04:57.626Z,11784
2017-07-05T11:05:58.675Z,12804
2017-07-05T11:06:57.936Z,12716
2017-07-05T11:07:57.713Z,14248
2017-07-05T11:08:58.071Z,15648
2017-07-05T11:09:57.770Z,17216
2017-07-05T11:10:58.017Z,17888
2017-07-05T11:11:58.209Z,17888
2017-07-05T11:12:58.054Z,17568
2017-07-05T11:13:57.920Z,16800
2017-07-05T11:14:58.174Z,15904
2017-07-05T11:15:58.203Z,15456
2017-07-05T11:16:58.196Z,15520
2017-07-05T11:17:58.188Z,16256
2017-07-05T11:18:58.359Z,17120
2017-07-05T11:19:59.453Z,16896
2017-07-05T11:20:58.224Z,16992
2017-07-05T11:21:58.525Z,15520
2017-07-05T11:22:58.867Z,13540
2017-07-05T11:23:58.385Z,10912
2017-07-05T11:24:58.542Z,9424
2017-07-05T11:25:58.827Z,8796
2017-07-05T11:26:58.891Z,8208
2017-07-05T11:27:58.778Z,8676
2017-07-05T11:28:58.628Z,9000
2017-07-05T11:29:58.784Z,8628
2017-07-05T11:30:59.416Z,7984
2017-07-05T11:31:59.002Z,7780
2017-07-05T11:32:59.111Z,8396
2017-07-05T11:33:59.574Z,8416
2017-07-05T11:34:58.850Z,7772
2017-07-05T11:35:59.308Z,7876
2017-07-05T11:36:59.141Z,8240
2017-07-05T11:37:59.093Z,9320
2017-07-05T11:38:59.090Z,10684
2017-07-05T11:39:59.225Z,11124
2017-07-05T11:40:59.560Z,11380
2017-07-05T11:41:59.311Z,12280
2017-07-05T11:42:59.514Z,13412
2017-07-05T11:44:00.654Z,13728
2017-07-05T11:44:59.657Z,13508
2017-07-05T11:45:59.651Z,12620
2017-07-05T11:46:59.519Z,11792
2017-07-05T11:47:59.266Z,10012
2017-07-05T11:48:59.529Z,9124
2017-07-05T11:49:59.608Z,9160
2017-07-05T11:50:59.392Z,9956
2017-07-05T11:51:59.825Z,11548
2017-07-05T11:52:59.784Z,10468
2017-07-05T11:53:59.714Z,9884
2017-07-05T11:54:59.819Z,10088
2017-07-05T11:55:59.714Z,10396
2017-07-05T11:56:59.858Z,10948
2017-07-05T11:57:59.999Z,13768
2017-07-05T11:58:59.908Z,12300
2017-07-05T11:59:59.823Z,12980
2017-07-05T12:00:59.762Z,13224
2017-07-05T12:02:03.020Z,12084
2017-07-05T12:03:00.004Z,11476
2017-07-05T12:04:00.350Z,11448
2017-07-05T12:05:00.333Z,12608
2017-07-05T12:05:59.962Z,12820
2017-07-05T12:07:00.198Z,12352
2017-07-05T12:08:00.293Z,11776
2017-07-05T12:09:00.213Z,12004
2017-07-05T12:10:00.410Z,12200
2017-07-05T12:11:01.321Z,11676
2017-07-05T12:12:00.589Z,12200
2017-07-05T12:13:00.234Z,12204
2017-07-05T12:14:00.317Z,11500
2017-07-05T12:15:00.364Z,10836
2017-07-05T12:16:00.676Z,10488
2017-07-05T12:17:00.691Z,9756
2017-07-05T12:18:00.790Z,9076
2017-07-05T12:19:01.282Z,9296
2017-07-05T12:20:00.992Z,9388
2017-07-05T12:21:01.626Z,9296
2017-07-05T12:22:00.814Z,9276
2017-07-05T12:23:01.010Z,8976
2017-07-05T12:24:00.853Z,9072
2017-07-05T12:25:00.913Z,8276
2017-07-05T12:26:01.120Z,7388
2017-07-05T12:27:01.918Z,7944
2017-07-05T12:28:01.408Z,8860
2017-07-05T12:29:01.289Z,8796
2017-07-05T12:30:01.081Z,8360
2017-07-05T12:31:01.045Z,9376
2017-07-05T12:32:01.177Z,8716
2017-07-05T12:33:01.637Z,8000
2017-07-05T12:34:01.599Z,6856
2017-07-05T12:35:02.173Z,6628
2017-07-05T12:36:01.528Z,7924
2017-07-05T12:37:01.646Z,8888
2017-07-05T12:38:01.479Z,8980
2017-07-05T12:39:01.400Z,8636
2017-07-05T12:40:01.341Z,8340
2017-07-05T12:41:01.614Z,7500
2017-07-05T12:42:02.067Z,7384
2017-07-05T12:43:02.282Z,7636
2017-07-05T12:44:01.495Z,7996
2017-07-05T12:45:01.892Z,8356
2017-07-05T12:46:02.040Z,8716
2017-07-05T12:47:02.021Z,9912
2017-07-05T12:48:01.770Z,9920
2017-07-05T12:49:01.691Z,8216
2017-07-05T12:50:02.087Z,8156
2017-07-05T12:51:01.888Z,9432
2017-07-05T12:52:02.355Z,9308
2017-07-05T12:53:02.059Z,9136
2017-07-05T12:54:01.877Z,9008
2017-07-05T12:55:02.532Z,9560
2017-07-05T12:56:02.457Z,9180
2017-07-05T12:57:02.539Z,9028
2017-07-05T12:58:01.931Z,8260
2017-07-05T12:59:02.728Z,8576
2017-07-05T13:00:02.531Z,8660
2017-07-05T13:01:02.093Z,7836
2017-07-05T13:02:02.524Z,6892
2017-07-05T13:03:02.635Z,6932
2017-07-05T13:04:02.176Z,7080
2017-07-05T13:05:02.257Z,7120
2017-07-05T13:06:03.515Z,6852
2017-07-05T13:07:02.297Z,6712
2017-07-05T13:08:02.741Z,6548
2017-07-05T13:09:02.324Z,6176
2017-07-05T13:10:02.921Z,6388
2017-07-05T13:11:02.386Z,6836
2017-07-05T13:12:02.540Z,7216
2017-07-05T13:13:02.531Z,6980
2017-07-05T13:14:02.608Z,6084
2017-07-05T13:15:03.604Z,5720
2017-07-05T13:16:02.935Z,5896
2017-07-05T13:17:02.983Z,6448
2017-07-05T13:18:03.218Z,6492
2017-07-05T13:19:03.254Z,6072
2017-07-05T13:20:03.174Z,5812
2017-07-05T13:21:02.900Z,5996
2017-07-05T13:22:03.068Z,5700
2017-07-05T13:23:02.889Z,5936
2017-07-05T13:24:03.370Z,4996
2017-07-05T13:25:02.978Z,4680
2017-07-05T13:26:03.094Z,5396
2017-07-05T13:27:03.305Z,5876
2017-07-05T13:28:03.170Z,5840
2017-07-05T13:29:03.583Z,6496
2017-07-05T13:30:03.437Z,7600
2017-07-05T13:31:03.499Z,7600
2017-07-05T13:32:03.291Z,8092
2017-07-05T13:33:03.407Z,7984
2017-07-05T13:34:03.371Z,7244